Time;durP1;ratioP1;P1;durP2;ratioP2;P2;SDS_P1;SDS_P2;PMS_P1;PMS_P2;Temp;Humidity;BMP_temperature;BMP_pressure;BME280_temperature;BME280_humidity;BME280_pressure;Samples;Min_cycle;Max_cycle;Signal;HPM_P1;HPM_P2
2021/12/04 00:01:54;;;;;;;52.17;26.17;;;4.30;99.90;;;;;;5066744;28;20397;-59
2021/12/04 00:04:29;;;;;;;55.05;26.02;;;4.30;99.90;;;;;;5089691;28;20442;-59
2021/12/04 00:06:55;;;;;;;53.58;25.58;;;4.30;99.90;;;;;;5065173;28;20127;-60
2021/12/04 00:09:21;;;;;;;56.53;26.42;;;4.30;99.90;;;;;;5053981;28;20131;-61
2021/12/04 00:12:01;;;;;;;54.40;25.50;;;4.20;99.90;;;;;;5065557;28;20379;-59
2021/12/04 00:14:28;;;;;;;50.70;25.13;;;4.30;99.90;;;;;;5070128;28;20418;-60
2021/12/04 00:16:54;;;;;;;56.97;26.70;;;4.30;99.90;;;;;;5069259;28;20041;-60
2021/12/04 00:19:21;;;;;;;53.58;25.98;;;4.30;99.90;;;;;;5070793;28;20036;-59
2021/12/04 00:21:47;;;;;;;53.10;26.48;;;4.30;99.90;;;;;;5066273;28;20045;-61
2021/12/04 00:24:13;;;;;;;53.03;24.83;;;4.20;99.90;;;;;;5085409;28;20386;-59
2021/12/04 00:26:39;;;;;;;52.08;24.52;;;4.30;99.90;;;;;;5078017;28;20041;-60
2021/12/04 00:29:05;;;;;;;48.28;24.25;;;4.30;99.90;;;;;;5074588;28;20050;-61
2021/12/04 00:31:32;;;;;;;48.65;23.92;;;4.30;99.90;;;;;;5069326;28;20109;-60
2021/12/04 00:33:58;;;;;;;51.28;24.15;;;4.30;99.90;;;;;;5074140;28;20055;-59
2021/12/04 00:36:30;;;;;;;49.08;23.88;;;4.30;99.90;;;;;;5072181;28;20082;-60
2021/12/04 00:49:53;;;;;;;45.75;23.33;;;4.30;99.90;;;;;;5094815;28;19927;-60
2021/12/04 00:52:19;;;;;;;45.45;22.73;;;4.30;99.90;;;;;;5087385;28;20032;-60
2021/12/04 00:54:46;;;;;;;45.15;23.13;;;4.30;99.90;;;;;;5094596;28;20051;-60
2021/12/04 00:57:12;;;;;;;44.33;22.60;;;4.30;99.90;;;;;;5085058;28;20036;-60
2021/12/04 00:59:37;;;;;;;41.40;21.65;;;4.30;99.90;;;;;;5093865;28;20028;-60
2021/12/04 01:02:04;;;;;;;40.15;21.50;;;4.30;99.90;;;;;;5092247;28;20166;-60
2021/12/04 01:04:29;;;;;;;41.53;21.77;;;4.30;99.90;;;;;;5094456;28;20177;-60
2021/12/04 01:06:55;;;;;;;42.08;21.88;;;4.30;99.90;;;;;;5091920;28;20553;-59
2021/12/04 01:09:23;;;;;;;39.03;21.73;;;4.30;99.90;;;;;;5093842;28;20479;-61
2021/12/04 01:11:51;;;;;;;36.95;20.67;;;4.30;99.90;;;;;;5090426;28;20054;-60
2021/12/04 01:14:20;;;;;;;34.90;20.65;;;4.30;99.90;;;;;;5094200;28;20173;-59
2021/12/04 01:16:46;;;;;;;33.85;19.92;;;4.30;99.90;;;;;;5092011;28;20144;-59
2021/12/04 01:19:14;;;;;;;32.38;19.20;;;4.30;99.90;;;;;;5075326;28;20063;-60
2021/12/04 01:21:41;;;;;;;29.50;18.13;;;4.30;99.90;;;;;;5091065;28;20043;-60
2021/12/04 01:24:06;;;;;;;29.45;17.88;;;4.30;99.90;;;;;;5094093;28;20122;-59
2021/12/04 01:26:32;;;;;;;32.22;19.10;;;4.30;99.90;;;;;;5090331;28;20139;-61
2021/12/04 01:28:58;;;;;;;27.38;17.02;;;4.30;99.90;;;;;;5091515;28;20036;-59
2021/12/04 01:31:23;;;;;;;28.30;17.60;;;4.30;99.90;;;;;;5087766;28;20047;-60
2021/12/04 01:33:49;;;;;;;27.73;17.70;;;4.20;99.90;;;;;;5091852;28;20070;-60
2021/12/04 01:36:15;;;;;;;27.98;17.25;;;4.20;99.90;;;;;;5093496;28;20044;-60
2021/12/04 01:38:41;;;;;;;26.33;17.48;;;4.20;99.90;;;;;;5083828;28;20035;-60
2021/12/04 01:41:06;;;;;;;27.40;17.77;;;4.20;99.90;;;;;;5093208;28;20495;-61
2021/12/04 01:43:32;;;;;;;28.75;18.08;;;4.20;99.90;;;;;;5091190;28;20086;-59
2021/12/04 01:45:58;;;;;;;25.02;16.55;;;4.30;99.90;;;;;;5091924;28;20043;-61
2021/12/04 01:48:25;;;;;;;28.83;17.95;;;4.20;99.90;;;;;;5093629;28;20364;-60
2021/12/04 01:50:52;;;;;;;27.58;17.45;;;4.20;99.90;;;;;;5089784;28;20502;-59
2021/12/04 01:53:19;;;;;;;28.35;17.00;;;4.20;99.90;;;;;;5088726;28;20028;-60
2021/12/04 01:55:45;;;;;;;30.42;18.92;;;4.20;99.90;;;;;;5073174;28;20040;-60
2021/12/04 01:58:11;;;;;;;26.95;16.40;;;4.20;99.90;;;;;;5091803;28;20034;-60
2021/12/04 02:00:40;;;;;;;27.88;16.73;;;4.20;99.90;;;;;;5085007;28;20036;-60
2021/12/04 02:03:08;;;;;;;28.67;17.90;;;4.20;99.90;;;;;;5092643;28;20040;-59
2021/12/04 02:05:37;;;;;;;27.90;18.45;;;4.20;99.90;;;;;;5091103;28;20495;-60
2021/12/04 02:08:05;;;;;;;28.08;18.38;;;4.20;99.90;;;;;;5092869;28;20036;-59
2021/12/04 02:10:31;;;;;;;30.73;18.23;;;4.20;99.90;;;;;;5090415;28;20048;-61
2021/12/04 02:12:56;;;;;;;30.67;18.30;;;4.20;99.90;;;;;;5088483;28;20152;-60
2021/12/04 02:15:22;;;;;;;26.38;17.13;;;4.20;99.90;;;;;;5087074;28;20068;-60
2021/12/04 02:17:49;;;;;;;25.33;16.17;;;4.20;99.90;;;;;;5088611;28;20043;-60
2021/12/04 02:20:17;;;;;;;26.52;17.23;;;4.20;99.90;;;;;;5092583;28;20489;-59
2021/12/04 02:22:44;;;;;;;25.95;16.52;;;4.20;99.90;;;;;;5086577;28;20047;-60
2021/12/04 02:25:11;;;;;;;28.65;17.20;;;4.20;99.90;;;;;;5091485;28;20062;-60
2021/12/04 02:27:37;;;;;;;27.05;16.73;;;4.20;99.90;;;;;;5072807;28;20141;-61
2021/12/04 02:30:07;;;;;;;25.75;16.40;;;4.20;99.90;;;;;;5089483;28;20479;-59
2021/12/04 02:32:33;;;;;;;28.17;16.73;;;4.20;99.90;;;;;;5070960;28;20082;-60
2021/12/04 02:34:59;;;;;;;26.63;17.00;;;4.20;99.90;;;;;;5092521;28;20475;-59
2021/12/04 02:37:25;;;;;;;28.52;17.75;;;4.20;99.90;;;;;;5090012;28;20032;-60
2021/12/04 02:39:58;;;;;;;28.88;18.33;;;4.20;99.90;;;;;;5091903;28;20055;-60
2021/12/04 02:42:28;;;;;;;28.67;17.73;;;4.20;99.90;;;;;;5089248;28;20056;-61
2021/12/04 02:44:54;;;;;;;28.23;17.10;;;4.20;99.90;;;;;;5088452;28;20097;-61
2021/12/04 02:47:20;;;;;;;29.08;16.85;;;4.20;99.90;;;;;;5091737;28;20039;-60
2021/12/04 02:49:46;;;;;;;28.83;16.92;;;4.40;99.90;;;;;;5087255;28;20032;-61
2021/12/04 02:52:13;;;;;;;28.75;17.25;;;4.20;99.90;;;;;;5092270;28;20040;-59
2021/12/04 02:54:39;;;;;;;30.08;17.35;;;4.20;99.90;;;;;;5086671;28;20249;-59
2021/12/04 02:57:07;;;;;;;32.95;18.23;;;4.20;99.90;;;;;;5086540;28;20040;-61
2021/12/04 02:59:35;;;;;;;28.63;16.63;;;4.20;99.90;;;;;;5086925;28;20471;-60
2021/12/04 03:02:01;;;;;;;28.35;16.40;;;4.20;99.90;;;;;;5092113;28;20040;-60
2021/12/04 03:04:28;;;;;;;28.67;17.58;;;4.20;99.90;;;;;;5089027;28;20514;-59
2021/12/04 03:06:54;;;;;;;28.08;16.60;;;4.20;99.90;;;;;;5092044;28;20044;-59
2021/12/04 03:09:20;;;;;;;27.40;16.55;;;4.20;99.90;;;;;;5088676;28;20491;-60
2021/12/04 03:11:46;;;;;;;28.33;16.10;;;4.20;99.90;;;;;;5086839;28;20090;-60
2021/12/04 03:14:12;;;;;;;31.92;17.60;;;4.20;99.90;;;;;;5068154;28;20075;-60
2021/12/04 03:16:39;;;;;;;28.63;16.70;;;4.20;99.90;;;;;;5088518;28;20036;-60
2021/12/04 03:19:06;;;;;;;28.77;16.38;;;4.20;99.90;;;;;;5091687;28;20485;-59
2021/12/04 03:21:33;;;;;;;27.60;16.02;;;4.20;99.90;;;;;;5104028;28;20034;-59
2021/12/04 03:24:05;;;;;;;25.95;15.40;;;4.20;99.90;;;;;;5088956;28;20115;-61
2021/12/04 03:26:31;;;;;;;28.17;17.15;;;4.30;99.90;;;;;;5087821;28;20071;-59
2021/12/04 03:29:00;;;;;;;26.92;15.98;;;4.20;99.90;;;;;;5102806;28;20071;-60
2021/12/04 03:42:24;;;;;;;30.13;16.85;;;4.20;99.90;;;;;;5085073;28;20044;-60
2021/12/04 03:44:50;;;;;;;28.25;16.35;;;4.20;99.90;;;;;;5085279;28;20040;-60
2021/12/04 03:47:17;;;;;;;26.35;15.27;;;4.20;99.90;;;;;;5076715;28;20040;-60
2021/12/04 03:49:43;;;;;;;26.05;14.80;;;4.20;99.90;;;;;;5090819;28;20390;-60
2021/12/04 03:52:09;;;;;;;26.85;15.88;;;4.20;99.90;;;;;;5086576;28;20036;-61
2021/12/04 03:54:36;;;;;;;27.92;15.85;;;4.20;99.90;;;;;;5088372;28;20560;-60
2021/12/04 03:57:05;;;;;;;26.20;16.00;;;4.20;99.90;;;;;;5087327;28;20468;-59
2021/12/04 03:59:32;;;;;;;24.83;15.25;;;4.20;99.90;;;;;;5071084;28;20139;-59
2021/12/04 04:01:58;;;;;;;24.58;14.93;;;4.20;99.90;;;;;;5087796;28;20040;-61
2021/12/04 04:04:24;;;;;;;26.00;15.27;;;4.40;99.90;;;;;;5090980;28;20459;-60
2021/12/04 04:06:50;;;;;;;24.90;15.27;;;4.20;99.90;;;;;;5069609;28;20045;-60
2021/12/04 04:09:15;;;;;;;26.77;16.33;;;4.20;99.90;;;;;;5089750;28;20043;-59
2021/12/04 04:11:41;;;;;;;24.30;14.52;;;4.20;99.90;;;;;;5088682;28;20047;-60
2021/12/04 04:14:08;;;;;;;25.90;15.75;;;4.20;99.90;;;;;;5088092;28;20040;-59
2021/12/04 04:16:35;;;;;;;25.85;16.27;;;4.20;99.90;;;;;;5090645;28;20145;-60
2021/12/04 04:19:01;;;;;;;27.02;16.05;;;4.20;99.90;;;;;;5087020;28;20456;-60
2021/12/04 04:21:27;;;;;;;25.27;15.15;;;4.20;99.90;;;;;;5090882;28;20078;-60
2021/12/04 04:23:52;;;;;;;26.20;15.75;;;4.20;99.90;;;;;;5084398;28;20536;-61
2021/12/04 04:26:18;;;;;;;25.70;15.35;;;4.20;99.90;;;;;;5071394;28;20028;-60
2021/12/04 04:28:44;;;;;;;27.00;16.17;;;4.20;99.90;;;;;;5084922;28;20036;-61
2021/12/04 04:31:10;;;;;;;25.95;15.38;;;4.20;99.90;;;;;;5087617;28;20130;-60
2021/12/04 04:33:40;;;;;;;26.63;15.27;;;4.20;99.90;;;;;;5088710;28;20096;-61
2021/12/04 04:36:16;;;;;;;27.55;16.13;;;4.20;99.90;;;;;;5090881;28;20491;-58
2021/12/04 04:38:52;;;;;;;27.50;16.58;;;4.20;99.90;;;;;;5088366;28;20101;-61
2021/12/04 05:11:14;;;;;;;31.88;17.55;;;4.20;99.90;;;;;;5109735;28;20056;-59
2021/12/04 05:13:40;;;;;;;34.15;17.25;;;4.20;99.90;;;;;;5092478;28;20040;-60
2021/12/04 05:16:30;;;;;;;31.25;16.83;;;4.20;99.90;;;;;;5073340;28;20134;-61
2021/12/04 05:18:58;;;;;;;33.90;17.98;;;4.20;99.90;;;;;;5093205;28;20035;-59
2021/12/04 05:21:24;;;;;;;30.83;16.98;;;4.20;99.90;;;;;;5093507;28;20163;-59
2021/12/04 05:23:54;;;;;;;34.60;18.48;;;4.20;99.90;;;;;;5092617;28;20111;-60
2021/12/04 05:26:25;;;;;;;34.70;17.67;;;4.20;99.90;;;;;;5093928;28;20024;-59
2021/12/04 05:28:51;;;;;;;34.08;17.42;;;4.20;99.90;;;;;;5090470;28;20036;-60
2021/12/04 05:31:17;;;;;;;36.15;18.45;;;4.20;99.90;;;;;;5089764;28;20032;-59
2021/12/04 05:33:43;;;;;;;34.53;18.48;;;4.20;99.90;;;;;;5089670;28;20035;-60
2021/12/04 05:36:10;;;;;;;35.72;18.38;;;4.20;99.90;;;;;;5093413;28;20122;-60
2021/12/04 05:38:37;;;;;;;34.80;18.92;;;4.20;99.90;;;;;;5091575;28;20040;-60
2021/12/04 05:41:03;;;;;;;40.47;18.73;;;4.20;99.90;;;;;;5093647;28;20429;-61
2021/12/04 05:43:30;;;;;;;39.88;18.17;;;4.20;99.90;;;;;;5089551;28;20056;-61
2021/12/04 05:46:21;;;;;;;38.15;18.58;;;4.20;99.90;;;;;;5091786;28;20547;-60
2021/12/04 05:48:55;;;;;;;48.30;19.60;;;4.20;99.90;;;;;;5090036;28;20515;-59
2021/12/04 05:56:47;;;;;;;41.85;19.70;;;4.20;99.90;;;;;;5089076;28;20076;-60
2021/12/04 05:59:13;;;;;;;42.85;19.52;;;4.20;99.90;;;;;;5091066;28;20055;-59
2021/12/04 06:01:39;;;;;;;40.90;18.48;;;4.20;99.90;;;;;;5085508;28;20425;-60
2021/12/04 06:04:04;;;;;;;44.42;19.85;;;4.20;99.90;;;;;;5091902;28;20036;-59
2021/12/04 06:06:30;;;;;;;47.00;20.17;;;4.20;99.90;;;;;;5093096;28;20035;-59
2021/12/04 06:08:56;;;;;;;43.25;19.48;;;4.20;99.90;;;;;;5088040;28;20052;-60
2021/12/04 06:11:22;;;;;;;46.50;19.73;;;4.20;99.90;;;;;;5092583;28;20096;-59
2021/12/04 06:13:49;;;;;;;48.05;20.20;;;4.20;99.90;;;;;;5088031;28;20078;-60
2021/12/04 06:16:15;;;;;;;48.40;20.05;;;4.20;99.90;;;;;;5089315;28;20407;-60
2021/12/04 06:18:41;;;;;;;44.08;19.27;;;4.20;99.90;;;;;;5090354;28;20044;-60
2021/12/04 06:23:52;;;;;;;49.58;21.35;;;4.20;99.90;;;;;;5091071;28;20036;-60
2021/12/04 06:26:17;;;;;;;50.45;20.67;;;4.20;99.90;;;;;;5092918;28;20032;-60
2021/12/04 06:28:43;;;;;;;47.00;20.15;;;4.20;99.90;;;;;;5083103;28;20110;-60
2021/12/04 06:31:10;;;;;;;53.33;22.17;;;4.20;99.90;;;;;;5089084;28;20047;-61
2021/12/04 06:33:37;;;;;;;49.03;20.63;;;4.20;99.90;;;;;;5086849;28;20172;-60
2021/12/04 06:36:04;;;;;;;52.60;21.70;;;4.20;99.90;;;;;;5092342;28;20557;-59
2021/12/04 06:38:30;;;;;;;49.42;20.25;;;4.20;99.90;;;;;;5087708;28;20463;-60
2021/12/04 06:40:56;;;;;;;48.38;20.67;;;4.20;99.90;;;;;;5092242;28;20036;-60
2021/12/04 06:43:22;;;;;;;59.42;21.83;;;4.20;99.90;;;;;;5090798;28;20048;-60
2021/12/04 06:46:02;;;;;;;55.40;21.40;;;4.20;99.90;;;;;;5086576;28;20046;-60
2021/12/04 06:48:42;;;;;;;54.88;21.00;;;4.20;99.90;;;;;;5092445;28;20055;-60
2021/12/04 06:51:33;;;;;;;56.67;22.33;;;4.20;99.90;;;;;;5087923;28;20039;-61
2021/12/04 06:56:22;;;;;;;59.88;22.75;;;4.20;99.90;;;;;;5086600;28;20032;-61
2021/12/04 06:58:48;;;;;;;57.90;22.27;;;4.20;99.90;;;;;;5071797;28;20043;-60
2021/12/04 07:01:14;;;;;;;66.30;22.13;;;4.20;99.90;;;;;;5084505;28;20383;-59
2021/12/04 07:03:40;;;;;;;64.32;22.48;;;4.20;99.90;;;;;;5092115;28;20123;-60
2021/12/04 07:06:07;;;;;;;64.93;23.15;;;4.20;99.90;;;;;;5089173;28;20097;-60
2021/12/04 07:08:32;;;;;;;61.97;22.38;;;4.20;99.90;;;;;;5091780;28;20044;-60
2021/12/04 07:10:59;;;;;;;64.03;23.05;;;4.20;99.90;;;;;;5089567;28;20483;-59
2021/12/04 07:13:25;;;;;;;69.82;23.10;;;4.20;99.90;;;;;;5088323;28;20591;-61
2021/12/04 07:16:01;;;;;;;74.50;23.27;;;4.20;99.90;;;;;;5090185;28;20048;-61
2021/12/04 07:18:26;;;;;;;71.60;23.48;;;4.20;99.90;;;;;;5103886;28;20121;-60
2021/12/04 07:20:52;;;;;;;73.35;23.67;;;4.20;99.90;;;;;;5091573;28;20032;-60
2021/12/04 07:23:18;;;;;;;74.93;24.20;;;4.20;99.90;;;;;;5090149;28;20063;-60
2021/12/04 07:25:43;;;;;;;76.72;23.42;;;4.20;99.90;;;;;;5091556;28;20123;-60
2021/12/04 07:28:09;;;;;;;76.22;23.70;;;4.20;99.90;;;;;;5085925;28;20032;-61
2021/12/04 07:30:35;;;;;;;80.68;25.20;;;4.20;99.90;;;;;;5069515;28;20043;-60
2021/12/04 07:33:00;;;;;;;79.53;23.60;;;4.20;99.90;;;;;;5084355;28;20510;-60
2021/12/04 07:35:26;;;;;;;75.43;23.48;;;4.20;99.90;;;;;;5090981;28;20051;-60
2021/12/04 07:37:52;;;;;;;83.88;25.52;;;4.20;99.90;;;;;;5072057;28;20033;-61
2021/12/04 07:40:17;;;;;;;76.07;24.75;;;4.20;99.90;;;;;;5088011;28;20411;-60
2021/12/04 07:42:43;;;;;;;74.47;24.80;;;4.20;99.90;;;;;;5079381;28;20105;-61
2021/12/04 07:45:09;;;;;;;79.43;24.52;;;4.20;99.90;;;;;;5087300;28;20051;-59
2021/12/04 07:47:35;;;;;;;83.13;24.88;;;4.20;99.90;;;;;;5087690;28;20484;-59
2021/12/04 07:50:01;;;;;;;76.68;24.27;;;4.20;99.90;;;;;;5085230;28;20032;-60
2021/12/04 07:52:27;;;;;;;85.90;24.85;;;4.20;99.90;;;;;;5088395;28;20071;-61
2021/12/04 07:54:53;;;;;;;91.63;26.15;;;4.20;99.90;;;;;;5090972;28;20068;-60
2021/12/04 07:57:20;;;;;;;70.80;24.48;;;4.20;99.90;;;;;;5085907;28;20376;-59
2021/12/04 07:59:46;;;;;;;83.00;25.05;;;4.20;99.90;;;;;;5091020;28;20074;-60
2021/12/04 08:02:12;;;;;;;84.75;26.30;;;4.20;99.90;;;;;;5084765;28;20079;-59
2021/12/04 08:04:38;;;;;;;81.80;25.90;;;4.20;99.90;;;;;;5090947;28;20036;-59
2021/12/04 08:07:04;;;;;;;94.78;27.00;;;4.20;99.90;;;;;;5088404;28;20047;-60
2021/12/04 08:09:29;;;;;;;87.55;26.95;;;4.20;99.90;;;;;;5090341;28;20048;-59
2021/12/04 08:11:56;;;;;;;90.15;26.50;;;4.20;99.90;;;;;;5087607;28;20051;-59
2021/12/04 08:14:21;;;;;;;98.15;26.73;;;4.20;99.90;;;;;;5091093;28;20085;-60
2021/12/04 08:16:47;;;;;;;103.43;27.45;;;4.20;99.90;;;;;;5084486;28;20040;-60
2021/12/04 08:19:14;;;;;;;96.00;27.30;;;4.20;99.90;;;;;;5091020;28;20044;-59
2021/12/04 08:21:39;;;;;;;91.53;26.33;;;4.20;99.90;;;;;;5089456;28;20394;-59
2021/12/04 08:24:06;;;;;;;99.15;27.23;;;4.20;99.90;;;;;;5105538;28;20032;-60
2021/12/04 08:26:34;;;;;;;92.70;25.30;;;4.20;99.90;;;;;;5085458;28;20123;-59
2021/12/04 08:29:00;;;;;;;104.85;26.60;;;4.20;99.90;;;;;;5085677;28;20036;-60
2021/12/04 08:31:26;;;;;;;101.00;26.60;;;4.20;99.90;;;;;;5087949;28;20130;-61
2021/12/04 08:33:52;;;;;;;105.00;27.48;;;4.20;99.90;;;;;;5086252;28;20032;-60
2021/12/04 08:36:18;;;;;;;94.45;25.92;;;4.40;99.90;;;;;;5067585;28;20040;-60
2021/12/04 08:38:47;;;;;;;106.60;27.45;;;4.20;99.90;;;;;;5085078;28;20036;-60
2021/12/04 08:41:14;;;;;;;119.65;26.83;;;4.20;99.90;;;;;;5079465;28;20150;-60
2021/12/04 08:43:40;;;;;;;106.63;26.52;;;4.20;99.90;;;;;;5062882;28;20511;-59
2021/12/04 08:46:07;;;;;;;104.43;27.15;;;4.20;99.90;;;;;;5084311;28;20075;-59
2021/12/04 08:48:33;;;;;;;113.35;27.02;;;4.20;99.90;;;;;;5081378;28;20044;-60
2021/12/04 08:51:00;;;;;;;105.88;26.60;;;4.20;99.90;;;;;;5087036;28;20442;-59
2021/12/04 08:53:26;;;;;;;107.90;26.98;;;4.20;99.90;;;;;;5083929;28;20387;-59
2021/12/04 08:55:53;;;;;;;89.53;25.58;;;4.30;99.90;;;;;;5086532;28;20132;-60
2021/12/04 08:58:19;;;;;;;100.10;26.20;;;4.20;99.90;;;;;;5081284;28;20032;-60
2021/12/04 09:01:00;;;;;;;96.85;25.45;;;4.20;99.90;;;;;;5086828;28;20114;-60
2021/12/04 09:03:30;;;;;;;74.10;23.45;;;4.20;99.90;;;;;;5087489;28;20039;-60
2021/12/04 09:05:57;;;;;;;87.30;24.70;;;4.20;99.90;;;;;;5090667;28;20072;-60
2021/12/04 09:08:24;;;;;;;79.70;24.25;;;4.20;99.90;;;;;;5085731;28;20043;-60
2021/12/04 09:10:52;;;;;;;76.93;22.45;;;4.30;99.90;;;;;;5093261;28;20492;-61
2021/12/04 09:13:18;;;;;;;69.00;22.60;;;4.30;99.90;;;;;;5091221;28;20043;-60
2021/12/04 09:15:45;;;;;;;83.03;23.25;;;4.30;99.90;;;;;;5093835;28;20032;-60
2021/12/04 09:18:11;;;;;;;79.55;24.55;;;4.30;99.90;;;;;;5080979;28;20036;-59
2021/12/04 09:20:37;;;;;;;75.25;23.08;;;4.30;99.90;;;;;;5093778;28;20032;-60
2021/12/04 09:23:06;;;;;;;76.20;23.10;;;4.30;99.90;;;;;;5090601;28;20044;-60
2021/12/04 09:25:33;;;;;;;76.60;23.70;;;4.30;99.90;;;;;;5075957;28;20772;-59
2021/12/04 09:36:57;;;;;;;82.00;24.70;;;4.40;99.90;;;;;;5048626;28;20053;-59
2021/12/04 10:33:51;;;;;;;77.50;25.02;;;4.70;99.90;;;;;;5050946;28;21188;-60
2021/12/04 10:36:30;;;;;;;82.85;25.88;;;4.70;99.90;;;;;;5049980;28;20044;-59
2021/12/04 10:38:56;;;;;;;88.03;26.55;;;4.70;99.90;;;;;;5049845;28;20086;-59
2021/12/04 10:41:32;;;;;;;98.55;28.05;;;4.70;99.90;;;;;;5046908;28;20046;-60
2021/12/04 10:44:21;;;;;;;78.70;27.20;;;4.70;99.90;;;;;;5049107;28;20109;-59
2021/12/04 10:47:04;;;;;;;78.90;25.33;;;4.70;99.90;;;;;;5045900;28;20199;-60
2021/12/04 10:52:26;;;;;;;74.55;26.02;;;4.80;99.90;;;;;;5046329;28;20048;-58
2021/12/04 10:55:11;;;;;;;77.05;27.08;;;4.80;99.90;;;;;;5029808;28;20395;-57
2021/12/04 10:58:17;;;;;;;;;;;4.80;99.90;;;;;;5044841;28;20387;-59
2021/12/04 11:03:26;;;;;;;78.78;26.75;;;4.80;99.90;;;;;;5031693;28;20520;-59
2021/12/04 11:19:09;;;;;;;78.72;26.35;;;4.70;99.90;;;;;;5106559;27;20556;-58
2021/12/04 11:35:25;;;;;;;65.45;24.63;;;4.90;99.90;;;;;;5102374;27;20055;-58
2021/12/04 11:38:12;;;;;;;79.78;25.10;;;4.90;99.90;;;;;;5105242;27;20293;-57
2021/12/04 11:43:27;;;;;;;62.38;23.13;;;5.00;99.90;;;;;;5133558;27;20091;-58
2021/12/04 11:48:38;;;;;;;68.65;25.35;;;4.90;99.90;;;;;;5104093;27;20055;-57
2021/12/04 11:51:10;;;;;;;65.03;22.83;;;5.00;99.90;;;;;;5103298;27;20031;-59
2021/12/04 11:53:36;;;;;;;62.72;21.88;;;5.00;99.90;;;;;;5100444;27;21071;-59
2021/12/04 11:56:02;;;;;;;61.15;22.40;;;5.00;99.90;;;;;;5106455;27;20119;-59
2021/12/04 11:58:31;;;;;;;67.70;22.55;;;5.00;99.90;;;;;;5101364;27;21502;-59
2021/12/04 12:01:05;;;;;;;61.65;23.10;;;5.00;99.90;;;;;;5103867;27;20039;-59
2021/12/04 12:03:34;;;;;;;68.07;23.00;;;5.00;99.90;;;;;;5102693;27;20182;-60
2021/12/04 12:06:09;;;;;;;58.20;23.70;;;5.00;99.90;;;;;;5104925;27;20508;-59
2021/12/04 12:08:42;;;;;;;65.40;23.70;;;5.00;99.90;;;;;;5101800;27;20090;-58
2021/12/04 12:11:12;;;;;;;61.72;22.70;;;5.00;99.90;;;;;;5102316;27;20031;-59
2021/12/04 12:13:45;;;;;;;67.32;24.10;;;5.00;99.90;;;;;;5104781;27;20122;-59
2021/12/04 12:16:22;;;;;;;73.65;23.70;;;6.20;99.90;;;;;;5106437;27;20031;-59
2021/12/04 12:18:53;;;;;;;70.53;23.90;;;5.00;99.90;;;;;;5095781;27;20375;-58
2021/12/04 12:21:27;;;;;;;69.15;23.10;;;5.00;99.90;;;;;;5091768;27;20043;-59
2021/12/04 12:38:34;;;;;;;64.05;21.30;;;5.00;99.90;;;;;;5110546;27;20039;-60
2021/12/04 12:41:19;;;;;;;;;;;5.00;99.90;;;;;;5118314;27;20108;-60
2021/12/04 12:43:56;;;;;;;61.80;20.92;;;5.00;99.90;;;;;;5118100;27;19926;-59
2021/12/04 12:46:35;;;;;;;57.28;20.10;;;5.00;99.90;;;;;;5115687;27;20694;-59
2021/12/04 12:49:02;;;;;;;49.70;19.67;;;5.00;99.90;;;;;;5116676;27;20061;-58
2021/12/04 12:51:36;;;;;;;58.95;20.00;;;5.00;99.90;;;;;;5117695;27;20039;-59
2021/12/04 12:54:06;;;;;;;54.92;21.30;;;5.00;99.90;;;;;;5117176;27;20031;-60
2021/12/04 12:56:34;;;;;;;52.60;19.67;;;5.00;99.90;;;;;;5120135;27;20043;-59
2021/12/04 12:59:08;;;;;;;53.35;21.52;;;5.00;99.90;;;;;;5115761;27;20089;-59
2021/12/04 13:13:44;;;;;;;58.75;22.85;;;5.00;99.90;;;;;;5125076;27;20523;-59
2021/12/04 13:16:30;;;;;;;66.53;24.73;;;5.10;99.90;;;;;;5126941;27;20043;-60
2021/12/04 13:19:01;;;;;;;63.10;23.83;;;5.00;99.90;;;;;;5129204;27;20045;-59
2021/12/04 13:21:27;;;;;;;63.20;25.75;;;5.00;99.90;;;;;;5129745;27;20096;-58
2021/12/04 13:23:56;;;;;;;65.50;23.40;;;5.00;99.90;;;;;;5125419;27;20042;-59
2021/12/04 13:26:32;;;;;;;64.68;24.98;;;5.00;99.90;;;;;;5113242;27;20439;-60
2021/12/04 13:29:00;;;;;;;66.47;24.73;;;5.00;99.90;;;;;;5128896;27;20053;-59
2021/12/04 13:31:26;;;;;;;68.07;25.33;;;5.00;99.90;;;;;;5122120;27;20031;-58
2021/12/04 13:33:53;;;;;;;65.72;24.52;;;5.00;99.90;;;;;;5126614;27;20362;-60
2021/12/04 13:36:22;;;;;;;59.72;24.77;;;5.00;99.90;;;;;;5127039;27;20035;-59
2021/12/04 13:39:09;;;;;;;60.67;25.85;;;5.10;99.90;;;;;;5128053;27;20035;-58
2021/12/04 13:41:36;;;;;;;59.80;24.10;;;5.00;99.90;;;;;;5122683;27;20411;-59
2021/12/04 13:44:06;;;;;;;60.00;25.80;;;4.90;99.90;;;;;;5129963;27;20047;-60
2021/12/04 13:47:03;;;;;;;63.30;25.08;;;4.90;99.90;;;;;;5127630;27;20068;-59
2021/12/04 13:49:36;;;;;;;69.95;26.73;;;4.90;99.90;;;;;;5119737;27;20050;-59
2021/12/04 13:52:13;;;;;;;72.95;26.42;;;5.00;99.90;;;;;;5132009;27;20114;-59
2021/12/04 13:54:47;;;;;;;63.05;25.98;;;5.00;99.90;;;;;;5130065;27;20031;-59
2021/12/04 13:57:14;;;;;;;60.47;25.15;;;5.00;99.90;;;;;;5124695;27;20050;-59
2021/12/04 13:59:41;;;;;;;73.25;26.70;;;5.00;99.90;;;;;;5132225;27;20039;-59
2021/12/04 14:02:17;;;;;;;63.97;27.08;;;5.00;99.90;;;;;;5120917;27;20065;-59
2021/12/04 14:04:43;;;;;;;75.15;29.25;;;5.00;99.90;;;;;;5124116;27;20078;-59
2021/12/04 14:07:08;;;;;;;79.25;27.38;;;5.00;99.90;;;;;;5128114;27;20143;-59
2021/12/04 14:09:39;;;;;;;73.20;28.25;;;5.00;99.90;;;;;;5116731;27;20032;-59
2021/12/04 14:12:06;;;;;;;76.30;27.92;;;4.90;99.90;;;;;;5113080;27;20142;-58
2021/12/04 14:14:34;;;;;;;71.45;27.85;;;5.00;99.90;;;;;;5099269;27;20066;-58
2021/12/04 14:17:12;;;;;;;77.05;27.65;;;4.90;99.90;;;;;;5100726;27;20684;-59
2021/12/04 14:19:39;;;;;;;72.95;29.35;;;5.00;99.90;;;;;;5091123;27;20047;-60
2021/12/04 14:22:09;;;;;;;85.65;30.20;;;5.00;99.90;;;;;;5106746;27;20528;-58
2021/12/04 14:24:50;;;;;;;86.82;30.50;;;4.90;99.90;;;;;;5090832;27;20047;-59
2021/12/04 14:27:21;;;;;;;81.22;30.45;;;5.00;99.90;;;;;;5089693;27;20082;-58
2021/12/04 14:29:51;;;;;;;75.53;27.77;;;5.00;99.90;;;;;;5089106;27;20027;-59
2021/12/04 14:32:23;;;;;;;78.97;28.58;;;5.10;99.90;;;;;;5090885;27;20054;-59
2021/12/04 14:34:56;;;;;;;74.68;27.55;;;5.00;99.90;;;;;;5085838;27;20254;-58
2021/12/04 14:37:22;;;;;;;67.97;26.30;;;5.00;99.90;;;;;;5087709;27;20166;-59
2021/12/04 14:39:49;;;;;;;67.55;26.95;;;5.00;99.90;;;;;;5086592;27;20078;-60
2021/12/04 14:42:22;;;;;;;60.22;25.10;;;5.00;99.90;;;;;;5092876;27;20492;-59
2021/12/04 14:44:54;;;;;;;53.38;23.20;;;4.90;99.90;;;;;;5089488;27;20482;-58
2021/12/04 14:47:21;;;;;;;56.40;23.73;;;5.00;99.90;;;;;;5091424;27;20599;-59
2021/12/04 14:49:51;;;;;;;52.92;22.38;;;5.00;99.90;;;;;;5091069;27;20042;-59
2021/12/04 14:52:23;;;;;;;50.15;23.58;;;5.00;99.90;;;;;;5088913;27;20544;-59
2021/12/04 14:54:50;;;;;;;52.17;22.60;;;5.00;99.90;;;;;;5090129;27;20036;-59
2021/12/04 14:57:21;;;;;;;47.95;21.73;;;5.00;99.90;;;;;;5092473;28;20324;-59
2021/12/04 14:59:58;;;;;;;47.75;22.70;;;5.00;99.90;;;;;;5087739;27;20225;-59
2021/12/04 15:02:24;;;;;;;42.72;21.05;;;5.00;99.90;;;;;;5091047;27;20047;-59
2021/12/04 15:04:50;;;;;;;54.67;22.48;;;5.00;99.90;;;;;;5088351;27;20051;-59
2021/12/04 15:07:26;;;;;;;46.78;20.63;;;5.00;99.90;;;;;;5092797;27;20054;-58
2021/12/04 15:09:52;;;;;;;49.38;21.10;;;5.00;99.90;;;;;;5090204;27;20381;-59
2021/12/04 15:12:36;;;;;;;49.05;21.38;;;5.00;99.90;;;;;;5091706;27;20047;-58
2021/12/04 15:15:07;;;;;;;;;;;5.00;99.90;;;;;;5090776;28;20058;-59
2021/12/04 15:17:34;;;;;;;49.28;21.60;;;5.00;99.90;;;;;;5090931;28;20309;-58
2021/12/04 15:20:04;;;;;;;58.53;23.38;;;5.00;99.90;;;;;;5089408;27;20051;-58
2021/12/04 15:22:42;;;;;;;47.80;22.58;;;5.00;99.90;;;;;;5091799;28;20979;-58
2021/12/04 15:25:13;;;;;;;54.40;23.17;;;5.00;99.90;;;;;;5090321;28;20130;-58
2021/12/04 15:27:39;;;;;;;52.33;23.02;;;5.00;99.90;;;;;;5089718;27;20048;-58
2021/12/04 15:30:10;;;;;;;51.90;24.17;;;5.00;99.90;;;;;;5088312;27;20043;-52
2021/12/04 15:32:38;;;;;;;52.80;23.73;;;4.90;99.90;;;;;;5090770;27;20067;-59
2021/12/04 15:35:24;;;;;;;55.45;23.20;;;5.00;99.90;;;;;;5090084;28;20043;-59
2021/12/04 15:38:00;;;;;;;51.65;24.48;;;4.90;99.90;;;;;;5090547;28;20638;-58
2021/12/04 15:40:51;;;;;;;50.67;21.95;;;5.00;99.90;;;;;;5088874;27;20751;-58
2021/12/04 15:43:25;;;;;;;50.10;21.25;;;5.00;99.90;;;;;;5086373;28;20040;-58
2021/12/04 15:46:15;;;;;;;;;;;5.00;99.90;;;;;;5089337;28;20856;-58
2021/12/04 15:49:12;;;;;;;58.28;23.45;;;4.90;99.90;;;;;;5088318;28;19928;-58
2021/12/04 15:54:18;;;;;;;85.45;36.13;;;4.90;99.90;;;;;;5092269;27;20463;-59
2021/12/04 15:56:52;;;;;;;127.75;51.70;;;4.90;99.90;;;;;;5093597;27;20069;-58
2021/12/04 15:59:24;;;;;;;155.77;60.60;;;4.90;99.90;;;;;;5093363;27;20074;-57
2021/12/04 16:01:53;;;;;;;114.65;47.97;;;4.90;99.90;;;;;;5093453;27;20565;-58